sensor_id;sensor_type;location;lat;lon;timestamp;P1;durP1;ratioP1;P2;durP2;ratioP2
3491;SDS011;1760;52.480;13.422;2023-07-22T00:01:36;3.47;;;3.10;;
3491;SDS011;1760;52.480;13.422;2023-07-22T00:04:03;4.30;;;3.40;;
3491;SDS011;1760;52.480;13.422;2023-07-22T00:06:30;4.03;;;3.03;;
3491;SDS011;1760;52.480;13.422;2023-07-22T00:08:58;6.53;;;4.03;;
3491;SDS011;1760;52.480;13.422;2023-07-22T00:11:29;4.30;;;3.90;;
3491;SDS011;1760;52.480;13.422;2023-07-22T00:13:56;4.00;;;3.60;;
3491;SDS011;1760;52.480;13.422;2023-07-22T00:16:24;4.17;;;3.67;;
3491;SDS011;1760;52.480;13.422;2023-07-22T00:18:50;4.63;;;3.33;;
3491;SDS011;1760;52.480;13.422;2023-07-22T00:21:18;3.50;;;3.00;;
3491;SDS011;1760;52.480;13.422;2023-07-22T00:23:45;3.67;;;3.20;;
3491;SDS011;1760;52.480;13.422;2023-07-22T00:26:12;4.17;;;3.50;;
3491;SDS011;1760;52.480;13.422;2023-07-22T00:28:43;3.70;;;3.40;;
3491;SDS011;1760;52.480;13.422;2023-07-22T00:31:10;4.57;;;3.40;;
3491;SDS011;1760;52.480;13.422;2023-07-22T00:33:36;4.97;;;4.00;;
3491;SDS011;1760;52.480;13.422;2023-07-22T00:36:04;4.00;;;3.63;;
3491;SDS011;1760;52.480;13.422;2023-07-22T00:38:31;5.00;;;3.90;;
3491;SDS011;1760;52.480;13.422;2023-07-22T00:41:00;3.70;;;3.40;;
3491;SDS011;1760;52.480;13.422;2023-07-22T00:43:30;5.93;;;3.50;;
3491;SDS011;1760;52.480;13.422;2023-07-22T00:45:59;6.40;;;4.13;;
3491;SDS011;1760;52.480;13.422;2023-07-22T00:48:26;5.20;;;4.00;;
3491;SDS011;1760;52.480;13.422;2023-07-22T00:50:54;4.40;;;4.00;;
3491;SDS011;1760;52.480;13.422;2023-07-22T00:53:23;4.50;;;3.60;;
3491;SDS011;1760;52.480;13.422;2023-07-22T00:55:50;6.23;;;4.77;;
3491;SDS011;1760;52.480;13.422;2023-07-22T00:58:18;3.97;;;3.47;;
3491;SDS011;1760;52.480;13.422;2023-07-22T01:00:45;7.13;;;4.10;;
3491;SDS011;1760;52.480;13.422;2023-07-22T01:03:15;4.00;;;3.60;;
3491;SDS011;1760;52.480;13.422;2023-07-22T01:05:44;5.17;;;4.10;;
3491;SDS011;1760;52.480;13.422;2023-07-22T01:08:12;4.70;;;3.73;;
3491;SDS011;1760;52.480;13.422;2023-07-22T01:10:40;5.23;;;4.13;;
3491;SDS011;1760;52.480;13.422;2023-07-22T01:13:07;4.77;;;3.70;;
3491;SDS011;1760;52.480;13.422;2023-07-22T01:15:34;4.50;;;4.10;;
3491;SDS011;1760;52.480;13.422;2023-07-22T01:18:02;6.57;;;3.00;;
3491;SDS011;1760;52.480;13.422;2023-07-22T01:20:31;5.87;;;4.60;;
3491;SDS011;1760;52.480;13.422;2023-07-22T01:22:59;4.50;;;4.10;;
3491;SDS011;1760;52.480;13.422;2023-07-22T01:25:27;5.67;;;4.53;;
3491;SDS011;1760;52.480;13.422;2023-07-22T01:27:55;5.13;;;4.33;;
3491;SDS011;1760;52.480;13.422;2023-07-22T01:30:22;4.77;;;4.27;;
3491;SDS011;1760;52.480;13.422;2023-07-22T01:32:50;5.23;;;4.67;;
3491;SDS011;1760;52.480;13.422;2023-07-22T01:35:17;4.63;;;4.23;;
3491;SDS011;1760;52.480;13.422;2023-07-22T01:37:45;5.43;;;3.97;;
3491;SDS011;1760;52.480;13.422;2023-07-22T01:40:14;5.93;;;5.00;;
3491;SDS011;1760;52.480;13.422;2023-07-22T01:42:58;5.83;;;4.80;;
3491;SDS011;1760;52.480;13.422;2023-07-22T01:45:24;8.73;;;6.43;;
3491;SDS011;1760;52.480;13.422;2023-07-22T01:47:51;4.87;;;4.37;;
3491;SDS011;1760;52.480;13.422;2023-07-22T01:50:18;6.00;;;4.80;;
3491;SDS011;1760;52.480;13.422;2023-07-22T01:52:46;4.87;;;4.47;;
3491;SDS011;1760;52.480;13.422;2023-07-22T01:55:14;6.07;;;5.00;;
3491;SDS011;1760;52.480;13.422;2023-07-22T01:57:44;7.30;;;4.73;;
3491;SDS011;1760;52.480;13.422;2023-07-22T02:00:12;5.07;;;4.67;;
3491;SDS011;1760;52.480;13.422;2023-07-22T02:02:41;6.80;;;4.80;;
3491;SDS011;1760;52.480;13.422;2023-07-22T02:05:08;6.33;;;4.73;;
3491;SDS011;1760;52.480;13.422;2023-07-22T02:07:40;4.97;;;4.47;;
3491;SDS011;1760;52.480;13.422;2023-07-22T02:10:10;5.03;;;4.43;;
3491;SDS011;1760;52.480;13.422;2023-07-22T02:12:38;5.17;;;4.67;;
3491;SDS011;1760;52.480;13.422;2023-07-22T02:15:10;4.63;;;4.17;;
3491;SDS011;1760;52.480;13.422;2023-07-22T02:17:36;9.00;;;5.80;;
3491;SDS011;1760;52.480;13.422;2023-07-22T02:20:04;3.63;;;3.33;;
3491;SDS011;1760;52.480;13.422;2023-07-22T02:22:33;4.43;;;3.80;;
3491;SDS011;1760;52.480;13.422;2023-07-22T02:25:01;7.70;;;4.87;;
3491;SDS011;1760;52.480;13.422;2023-07-22T02:27:29;4.50;;;3.97;;
3491;SDS011;1760;52.480;13.422;2023-07-22T02:29:57;9.73;;;4.17;;
3491;SDS011;1760;52.480;13.422;2023-07-22T02:32:24;5.80;;;4.50;;
3491;SDS011;1760;52.480;13.422;2023-07-22T02:34:51;6.73;;;4.10;;
3491;SDS011;1760;52.480;13.422;2023-07-22T02:37:18;4.47;;;4.07;;
3491;SDS011;1760;52.480;13.422;2023-07-22T02:39:45;4.43;;;3.53;;
3491;SDS011;1760;52.480;13.422;2023-07-22T02:42:12;6.37;;;4.33;;
3491;SDS011;1760;52.480;13.422;2023-07-22T02:44:39;5.57;;;4.20;;
3491;SDS011;1760;52.480;13.422;2023-07-22T02:47:07;4.13;;;3.73;;
3491;SDS011;1760;52.480;13.422;2023-07-22T02:49:34;5.53;;;4.33;;
3491;SDS011;1760;52.480;13.422;2023-07-22T02:52:01;6.20;;;4.00;;
3491;SDS011;1760;52.480;13.422;2023-07-22T02:54:29;4.67;;;4.10;;
3491;SDS011;1760;52.480;13.422;2023-07-22T02:56:55;4.60;;;4.17;;
3491;SDS011;1760;52.480;13.422;2023-07-22T02:59:22;4.27;;;3.33;;
3491;SDS011;1760;52.480;13.422;2023-07-22T03:01:50;4.37;;;3.93;;
3491;SDS011;1760;52.480;13.422;2023-07-22T03:04:19;4.93;;;4.47;;
3491;SDS011;1760;52.480;13.422;2023-07-22T03:06:46;7.43;;;4.27;;
3491;SDS011;1760;52.480;13.422;2023-07-22T03:09:13;4.97;;;4.47;;
3491;SDS011;1760;52.480;13.422;2023-07-22T03:11:40;5.70;;;4.67;;
3491;SDS011;1760;52.480;13.422;2023-07-22T03:14:07;4.90;;;4.33;;
3491;SDS011;1760;52.480;13.422;2023-07-22T03:16:34;5.70;;;3.77;;
3491;SDS011;1760;52.480;13.422;2023-07-22T03:19:01;5.17;;;4.67;;
3491;SDS011;1760;52.480;13.422;2023-07-22T03:21:29;5.17;;;4.63;;
3491;SDS011;1760;52.480;13.422;2023-07-22T03:23:56;11.13;;;5.20;;
3491;SDS011;1760;52.480;13.422;2023-07-22T03:26:23;7.23;;;4.87;;
3491;SDS011;1760;52.480;13.422;2023-07-22T03:28:50;4.97;;;3.97;;
3491;SDS011;1760;52.480;13.422;2023-07-22T03:31:17;15.53;;;5.03;;
3491;SDS011;1760;52.480;13.422;2023-07-22T03:33:44;5.27;;;4.27;;
3491;SDS011;1760;52.480;13.422;2023-07-22T03:36:11;5.37;;;4.83;;
3491;SDS011;1760;52.480;13.422;2023-07-22T03:38:40;5.77;;;4.83;;
3491;SDS011;1760;52.480;13.422;2023-07-22T03:41:07;5.20;;;4.53;;
3491;SDS011;1760;52.480;13.422;2023-07-22T03:43:34;5.40;;;4.03;;
3491;SDS011;1760;52.480;13.422;2023-07-22T03:46:01;5.10;;;4.40;;
3491;SDS011;1760;52.480;13.422;2023-07-22T03:48:28;6.37;;;4.70;;
3491;SDS011;1760;52.480;13.422;2023-07-22T03:50:54;5.40;;;4.60;;
3491;SDS011;1760;52.480;13.422;2023-07-22T03:53:21;6.77;;;4.30;;
3491;SDS011;1760;52.480;13.422;2023-07-22T03:55:50;4.53;;;4.13;;
3491;SDS011;1760;52.480;13.422;2023-07-22T03:58:17;4.83;;;4.37;;
3491;SDS011;1760;52.480;13.422;2023-07-22T04:00:47;8.63;;;4.30;;
3491;SDS011;1760;52.480;13.422;2023-07-22T04:03:15;6.20;;;3.70;;
3491;SDS011;1760;52.480;13.422;2023-07-22T04:05:42;4.70;;;4.20;;
3491;SDS011;1760;52.480;13.422;2023-07-22T04:08:11;7.50;;;4.33;;
3491;SDS011;1760;52.480;13.422;2023-07-22T04:10:38;11.63;;;4.07;;
3491;SDS011;1760;52.480;13.422;2023-07-22T04:13:06;4.17;;;3.60;;
3491;SDS011;1760;52.480;13.422;2023-07-22T04:15:36;6.20;;;4.03;;
3491;SDS011;1760;52.480;13.422;2023-07-22T04:18:05;5.17;;;4.10;;
3491;SDS011;1760;52.480;13.422;2023-07-22T04:20:32;7.50;;;3.93;;
3491;SDS011;1760;52.480;13.422;2023-07-22T04:22:59;4.40;;;3.43;;
3491;SDS011;1760;52.480;13.422;2023-07-22T04:25:26;3.97;;;3.17;;
3491;SDS011;1760;52.480;13.422;2023-07-22T04:27:53;4.13;;;3.43;;
3491;SDS011;1760;52.480;13.422;2023-07-22T04:30:21;6.30;;;4.00;;
3491;SDS011;1760;52.480;13.422;2023-07-22T04:32:49;4.00;;;3.43;;
3491;SDS011;1760;52.480;13.422;2023-07-22T04:35:16;4.37;;;2.80;;
3491;SDS011;1760;52.480;13.422;2023-07-22T04:37:43;5.07;;;3.17;;
3491;SDS011;1760;52.480;13.422;2023-07-22T04:40:11;4.13;;;3.40;;
3491;SDS011;1760;52.480;13.422;2023-07-22T04:42:41;4.90;;;3.27;;
3491;SDS011;1760;52.480;13.422;2023-07-22T04:45:08;3.50;;;3.20;;
3491;SDS011;1760;52.480;13.422;2023-07-22T04:47:37;3.97;;;2.97;;
3491;SDS011;1760;52.480;13.422;2023-07-22T04:50:05;6.03;;;3.73;;
3491;SDS011;1760;52.480;13.422;2023-07-22T04:52:35;7.13;;;3.63;;
3491;SDS011;1760;52.480;13.422;2023-07-22T04:55:14;4.37;;;3.40;;
3491;SDS011;1760;52.480;13.422;2023-07-22T04:57:41;5.43;;;3.43;;
3491;SDS011;1760;52.480;13.422;2023-07-22T05:00:10;6.07;;;3.43;;
3491;SDS011;1760;52.480;13.422;2023-07-22T05:02:42;5.97;;;3.90;;
3491;SDS011;1760;52.480;13.422;2023-07-22T05:05:10;5.87;;;4.50;;
3491;SDS011;1760;52.480;13.422;2023-07-22T05:07:37;4.77;;;3.50;;
3491;SDS011;1760;52.480;13.422;2023-07-22T05:10:05;5.40;;;4.13;;
3491;SDS011;1760;52.480;13.422;2023-07-22T05:12:37;6.27;;;4.30;;
3491;SDS011;1760;52.480;13.422;2023-07-22T05:15:04;6.63;;;4.53;;
3491;SDS011;1760;52.480;13.422;2023-07-22T05:17:32;9.23;;;4.90;;
3491;SDS011;1760;52.480;13.422;2023-07-22T05:20:00;6.53;;;4.63;;
3491;SDS011;1760;52.480;13.422;2023-07-22T05:22:27;5.87;;;3.83;;
3491;SDS011;1760;52.480;13.422;2023-07-22T05:24:54;8.33;;;4.70;;
3491;SDS011;1760;52.480;13.422;2023-07-22T05:27:21;4.60;;;4.20;;
3491;SDS011;1760;52.480;13.422;2023-07-22T05:29:48;6.37;;;4.97;;
3491;SDS011;1760;52.480;13.422;2023-07-22T05:32:16;7.43;;;4.77;;
3491;SDS011;1760;52.480;13.422;2023-07-22T05:34:43;5.87;;;4.60;;
3491;SDS011;1760;52.480;13.422;2023-07-22T05:37:11;5.07;;;4.20;;
3491;SDS011;1760;52.480;13.422;2023-07-22T05:39:38;6.83;;;4.90;;
3491;SDS011;1760;52.480;13.422;2023-07-22T05:42:05;9.60;;;5.10;;
3491;SDS011;1760;52.480;13.422;2023-07-22T05:44:32;7.53;;;5.10;;
3491;SDS011;1760;52.480;13.422;2023-07-22T05:46:59;8.10;;;4.60;;
3491;SDS011;1760;52.480;13.422;2023-07-22T05:49:27;7.10;;;5.00;;
3491;SDS011;1760;52.480;13.422;2023-07-22T05:51:54;8.97;;;5.87;;
3491;SDS011;1760;52.480;13.422;2023-07-22T05:54:22;16.43;;;5.53;;
3491;SDS011;1760;52.480;13.422;2023-07-22T05:56:49;6.77;;;4.37;;
3491;SDS011;1760;52.480;13.422;2023-07-22T05:59:17;6.67;;;5.30;;
3491;SDS011;1760;52.480;13.422;2023-07-22T06:01:44;12.73;;;5.37;;
3491;SDS011;1760;52.480;13.422;2023-07-22T06:04:11;9.50;;;5.17;;
3491;SDS011;1760;52.480;13.422;2023-07-22T06:06:38;6.80;;;5.13;;
3491;SDS011;1760;52.480;13.422;2023-07-22T06:09:05;8.20;;;5.50;;
3491;SDS011;1760;52.480;13.422;2023-07-22T06:11:34;8.50;;;4.97;;
3491;SDS011;1760;52.480;13.422;2023-07-22T06:14:01;8.10;;;4.87;;
3491;SDS011;1760;52.480;13.422;2023-07-22T06:16:27;6.40;;;4.73;;
3491;SDS011;1760;52.480;13.422;2023-07-22T06:18:55;6.30;;;4.67;;
3491;SDS011;1760;52.480;13.422;2023-07-22T06:21:21;6.93;;;4.80;;
3491;SDS011;1760;52.480;13.422;2023-07-22T06:23:49;7.10;;;4.90;;
3491;SDS011;1760;52.480;13.422;2023-07-22T06:26:16;7.20;;;5.00;;
3491;SDS011;1760;52.480;13.422;2023-07-22T06:28:45;8.17;;;5.97;;
3491;SDS011;1760;52.480;13.422;2023-07-22T06:31:11;6.40;;;4.17;;
3491;SDS011;1760;52.480;13.422;2023-07-22T06:33:41;7.00;;;5.27;;
3491;SDS011;1760;52.480;13.422;2023-07-22T06:36:07;8.70;;;4.93;;
3491;SDS011;1760;52.480;13.422;2023-07-22T06:38:41;5.07;;;3.93;;
3491;SDS011;1760;52.480;13.422;2023-07-22T06:41:08;6.10;;;4.10;;
3491;SDS011;1760;52.480;13.422;2023-07-22T06:43:35;8.00;;;4.80;;
3491;SDS011;1760;52.480;13.422;2023-07-22T06:46:04;4.53;;;3.70;;
3491;SDS011;1760;52.480;13.422;2023-07-22T06:48:30;7.30;;;4.70;;
3491;SDS011;1760;52.480;13.422;2023-07-22T06:50:58;8.03;;;3.83;;
3491;SDS011;1760;52.480;13.422;2023-07-22T06:53:25;5.13;;;3.70;;
3491;SDS011;1760;52.480;13.422;2023-07-22T06:55:52;6.63;;;4.90;;
3491;SDS011;1760;52.480;13.422;2023-07-22T06:58:19;4.67;;;3.43;;
3491;SDS011;1760;52.480;13.422;2023-07-22T07:00:47;4.63;;;3.50;;
3491;SDS011;1760;52.480;13.422;2023-07-22T07:03:16;3.03;;;2.60;;
3491;SDS011;1760;52.480;13.422;2023-07-22T07:05:42;8.17;;;3.93;;
3491;SDS011;1760;52.480;13.422;2023-07-22T07:08:12;3.73;;;2.87;;
3491;SDS011;1760;52.480;13.422;2023-07-22T07:10:39;5.80;;;3.20;;
3491;SDS011;1760;52.480;13.422;2023-07-22T07:13:06;3.50;;;2.77;;
3491;SDS011;1760;52.480;13.422;2023-07-22T07:15:34;10.40;;;2.77;;
3491;SDS011;1760;52.480;13.422;2023-07-22T07:18:01;5.83;;;2.47;;
3491;SDS011;1760;52.480;13.422;2023-07-22T07:20:29;3.77;;;2.70;;
3491;SDS011;1760;52.480;13.422;2023-07-22T07:22:56;4.90;;;3.00;;
3491;SDS011;1760;52.480;13.422;2023-07-22T07:25:23;3.80;;;3.33;;
3491;SDS011;1760;52.480;13.422;2023-07-22T07:27:51;4.73;;;3.60;;
3491;SDS011;1760;52.480;13.422;2023-07-22T07:30:17;3.67;;;3.00;;
3491;SDS011;1760;52.480;13.422;2023-07-22T07:32:47;4.57;;;3.30;;
3491;SDS011;1760;52.480;13.422;2023-07-22T07:35:15;4.97;;;2.47;;
3491;SDS011;1760;52.480;13.422;2023-07-22T07:37:43;5.10;;;4.10;;
3491;SDS011;1760;52.480;13.422;2023-07-22T07:40:11;5.07;;;3.37;;
3491;SDS011;1760;52.480;13.422;2023-07-22T07:42:38;4.13;;;3.03;;
3491;SDS011;1760;52.480;13.422;2023-07-22T07:45:09;4.60;;;2.47;;
3491;SDS011;1760;52.480;13.422;2023-07-22T07:47:36;6.80;;;3.67;;
3491;SDS011;1760;52.480;13.422;2023-07-22T07:50:03;4.73;;;3.17;;
3491;SDS011;1760;52.480;13.422;2023-07-22T07:52:31;5.27;;;3.00;;
3491;SDS011;1760;52.480;13.422;2023-07-22T07:55:00;3.60;;;1.97;;
3491;SDS011;1760;52.480;13.422;2023-07-22T07:57:27;10.00;;;2.93;;
3491;SDS011;1760;52.480;13.422;2023-07-22T07:59:54;5.43;;;3.30;;
3491;SDS011;1760;52.480;13.422;2023-07-22T08:02:21;3.67;;;3.33;;
3491;SDS011;1760;52.480;13.422;2023-07-22T08:04:49;3.67;;;3.10;;
3491;SDS011;1760;52.480;13.422;2023-07-22T08:07:19;7.57;;;3.90;;
3491;SDS011;1760;52.480;13.422;2023-07-22T08:09:47;7.73;;;3.60;;
3491;SDS011;1760;52.480;13.422;2023-07-22T08:12:19;4.33;;;2.90;;
3491;SDS011;1760;52.480;13.422;2023-07-22T08:14:46;7.57;;;2.93;;
3491;SDS011;1760;52.480;13.422;2023-07-22T08:17:13;3.63;;;2.47;;
3491;SDS011;1760;52.480;13.422;2023-07-22T08:19:40;6.23;;;3.40;;
3491;SDS011;1760;52.480;13.422;2023-07-22T08:22:07;7.60;;;2.80;;
3491;SDS011;1760;52.480;13.422;2023-07-22T08:24:34;4.70;;;3.10;;
3491;SDS011;1760;52.480;13.422;2023-07-22T08:27:02;4.03;;;3.20;;
3491;SDS011;1760;52.480;13.422;2023-07-22T08:29:31;3.70;;;3.23;;
3491;SDS011;1760;52.480;13.422;2023-07-22T08:31:59;5.50;;;3.83;;
3491;SDS011;1760;52.480;13.422;2023-07-22T08:34:25;4.30;;;2.87;;
3491;SDS011;1760;52.480;13.422;2023-07-22T08:36:52;4.70;;;3.17;;
3491;SDS011;1760;52.480;13.422;2023-07-22T08:39:19;11.17;;;3.97;;
3491;SDS011;1760;52.480;13.422;2023-07-22T08:41:47;5.67;;;3.03;;
3491;SDS011;1760;52.480;13.422;2023-07-22T08:44:16;3.30;;;3.00;;
3491;SDS011;1760;52.480;13.422;2023-07-22T08:46:47;3.33;;;2.77;;
3491;SDS011;1760;52.480;13.422;2023-07-22T08:49:17;5.87;;;2.93;;
3491;SDS011;1760;52.480;13.422;2023-07-22T08:51:44;4.20;;;3.10;;
3491;SDS011;1760;52.480;13.422;2023-07-22T08:54:12;5.10;;;3.73;;
3491;SDS011;1760;52.480;13.422;2023-07-22T08:56:40;3.63;;;2.90;;
3491;SDS011;1760;52.480;13.422;2023-07-22T08:59:08;5.03;;;3.17;;
3491;SDS011;1760;52.480;13.422;2023-07-22T09:01:35;8.40;;;3.63;;
3491;SDS011;1760;52.480;13.422;2023-07-22T09:04:05;4.60;;;3.10;;
3491;SDS011;1760;52.480;13.422;2023-07-22T09:06:34;3.03;;;2.57;;
3491;SDS011;1760;52.480;13.422;2023-07-22T09:09:01;4.77;;;3.10;;
3491;SDS011;1760;52.480;13.422;2023-07-22T09:11:32;5.00;;;2.97;;
3491;SDS011;1760;52.480;13.422;2023-07-22T09:14:00;3.37;;;2.87;;
3491;SDS011;1760;52.480;13.422;2023-07-22T09:16:28;4.03;;;2.97;;
3491;SDS011;1760;52.480;13.422;2023-07-22T09:18:57;6.90;;;3.10;;
3491;SDS011;1760;52.480;13.422;2023-07-22T09:21:25;4.10;;;2.93;;
3491;SDS011;1760;52.480;13.422;2023-07-22T09:23:53;4.07;;;2.90;;
3491;SDS011;1760;52.480;13.422;2023-07-22T09:26:20;5.03;;;2.90;;
3491;SDS011;1760;52.480;13.422;2023-07-22T09:28:50;15.93;;;3.90;;
3491;SDS011;1760;52.480;13.422;2023-07-22T09:31:19;5.57;;;2.87;;
3491;SDS011;1760;52.480;13.422;2023-07-22T09:33:46;3.30;;;2.87;;
3491;SDS011;1760;52.480;13.422;2023-07-22T09:36:14;4.20;;;2.70;;
3491;SDS011;1760;52.480;13.422;2023-07-22T09:38:42;3.30;;;2.40;;
3491;SDS011;1760;52.480;13.422;2023-07-22T09:41:09;4.47;;;3.00;;
3491;SDS011;1760;52.480;13.422;2023-07-22T09:43:36;3.27;;;2.37;;
3491;SDS011;1760;52.480;13.422;2023-07-22T09:46:08;3.27;;;2.60;;
3491;SDS011;1760;52.480;13.422;2023-07-22T09:48:39;6.87;;;2.50;;
3491;SDS011;1760;52.480;13.422;2023-07-22T09:51:11;2.77;;;2.37;;
3491;SDS011;1760;52.480;13.422;2023-07-22T09:53:45;3.30;;;2.63;;
3491;SDS011;1760;52.480;13.422;2023-07-22T09:56:12;4.27;;;2.70;;
3491;SDS011;1760;52.480;13.422;2023-07-22T09:58:39;3.70;;;2.73;;
3491;SDS011;1760;52.480;13.422;2023-07-22T10:01:07;3.70;;;2.47;;
3491;SDS011;1760;52.480;13.422;2023-07-22T10:03:34;4.13;;;2.57;;
3491;SDS011;1760;52.480;13.422;2023-07-22T10:06:03;2.80;;;1.87;;
3491;SDS011;1760;52.480;13.422;2023-07-22T10:08:33;3.30;;;2.27;;
3491;SDS011;1760;52.480;13.422;2023-07-22T10:11:04;3.10;;;2.63;;
3491;SDS011;1760;52.480;13.422;2023-07-22T10:13:35;6.47;;;3.00;;
3491;SDS011;1760;52.480;13.422;2023-07-22T10:16:03;8.17;;;3.27;;
3491;SDS011;1760;52.480;13.422;2023-07-22T10:18:31;4.20;;;3.20;;
3491;SDS011;1760;52.480;13.422;2023-07-22T10:21:00;4.20;;;2.80;;
3491;SDS011;1760;52.480;13.422;2023-07-22T10:23:27;3.33;;;2.30;;
3491;SDS011;1760;52.480;13.422;2023-07-22T10:25:55;3.20;;;2.70;;
3491;SDS011;1760;52.480;13.422;2023-07-22T10:28:25;5.53;;;3.10;;
3491;SDS011;1760;52.480;13.422;2023-07-22T10:30:52;6.17;;;3.60;;
3491;SDS011;1760;52.480;13.422;2023-07-22T10:33:19;3.97;;;2.37;;
3491;SDS011;1760;52.480;13.422;2023-07-22T10:36:01;6.57;;;2.80;;
3491;SDS011;1760;52.480;13.422;2023-07-22T10:38:30;3.43;;;2.23;;
3491;SDS011;1760;52.480;13.422;2023-07-22T10:40:57;5.43;;;2.80;;
3491;SDS011;1760;52.480;13.422;2023-07-22T10:43:26;6.60;;;2.80;;
3491;SDS011;1760;52.480;13.422;2023-07-22T10:45:56;4.47;;;2.80;;
3491;SDS011;1760;52.480;13.422;2023-07-22T10:48:25;3.73;;;2.43;;
3491;SDS011;1760;52.480;13.422;2023-07-22T10:50:58;10.83;;;3.90;;
3491;SDS011;1760;52.480;13.422;2023-07-22T10:53:31;4.60;;;3.03;;
3491;SDS011;1760;52.480;13.422;2023-07-22T10:58:58;3.73;;;3.00;;
3491;SDS011;1760;52.480;13.422;2023-07-22T11:01:33;4.90;;;3.10;;
3491;SDS011;1760;52.480;13.422;2023-07-22T11:04:07;3.80;;;2.97;;
3491;SDS011;1760;52.480;13.422;2023-07-22T11:06:39;5.60;;;3.23;;
3491;SDS011;1760;52.480;13.422;2023-07-22T11:09:34;4.27;;;3.27;;
3491;SDS011;1760;52.480;13.422;2023-07-22T11:12:02;2.93;;;2.60;;
3491;SDS011;1760;52.480;13.422;2023-07-22T11:14:32;8.27;;;3.20;;
3491;SDS011;1760;52.480;13.422;2023-07-22T11:17:01;5.67;;;3.13;;
3491;SDS011;1760;52.480;13.422;2023-07-22T11:19:30;3.80;;;2.93;;
3491;SDS011;1760;52.480;13.422;2023-07-22T11:21:57;3.67;;;2.90;;
3491;SDS011;1760;52.480;13.422;2023-07-22T11:24:24;3.60;;;2.50;;
3491;SDS011;1760;52.480;13.422;2023-07-22T11:26:54;5.97;;;3.80;;
3491;SDS011;1760;52.480;13.422;2023-07-22T11:29:22;4.80;;;3.90;;
3491;SDS011;1760;52.480;13.422;2023-07-22T11:31:50;4.90;;;4.13;;
3491;SDS011;1760;52.480;13.422;2023-07-22T11:34:18;4.90;;;3.43;;
3491;SDS011;1760;52.480;13.422;2023-07-22T11:36:49;4.60;;;3.07;;
3491;SDS011;1760;52.480;13.422;2023-07-22T11:39:18;6.70;;;2.73;;
3491;SDS011;1760;52.480;13.422;2023-07-22T11:41:46;6.43;;;2.90;;
3491;SDS011;1760;52.480;13.422;2023-07-22T11:44:15;4.97;;;3.20;;
3491;SDS011;1760;52.480;13.422;2023-07-22T11:46:46;4.00;;;3.60;;
3491;SDS011;1760;52.480;13.422;2023-07-22T11:49:22;6.17;;;3.70;;
3491;SDS011;1760;52.480;13.422;2023-07-22T11:51:50;5.10;;;2.80;;
3491;SDS011;1760;52.480;13.422;2023-07-22T11:54:20;3.63;;;3.07;;
3491;SDS011;1760;52.480;13.422;2023-07-22T11:56:47;4.30;;;3.07;;
3491;SDS011;1760;52.480;13.422;2023-07-22T11:59:14;5.70;;;3.03;;
3491;SDS011;1760;52.480;13.422;2023-07-22T12:01:43;5.13;;;3.00;;
3491;SDS011;1760;52.480;13.422;2023-07-22T12:04:12;5.73;;;3.87;;
3491;SDS011;1760;52.480;13.422;2023-07-22T12:06:41;4.23;;;2.93;;
3491;SDS011;1760;52.480;13.422;2023-07-22T12:09:08;4.73;;;3.23;;
3491;SDS011;1760;52.480;13.422;2023-07-22T12:11:36;7.27;;;3.20;;
3491;SDS011;1760;52.480;13.422;2023-07-22T12:14:06;4.50;;;2.97;;
3491;SDS011;1760;52.480;13.422;2023-07-22T12:16:34;4.80;;;2.90;;
3491;SDS011;1760;52.480;13.422;2023-07-22T12:19:02;5.37;;;3.67;;
3491;SDS011;1760;52.480;13.422;2023-07-22T12:21:30;3.67;;;2.90;;
3491;SDS011;1760;52.480;13.422;2023-07-22T12:23:59;5.47;;;3.20;;
3491;SDS011;1760;52.480;13.422;2023-07-22T12:26:26;4.23;;;2.90;;
3491;SDS011;1760;52.480;13.422;2023-07-22T12:28:53;5.33;;;3.40;;
3491;SDS011;1760;52.480;13.422;2023-07-22T12:31:20;4.40;;;3.27;;
3491;SDS011;1760;52.480;13.422;2023-07-22T12:33:47;5.60;;;3.33;;
3491;SDS011;1760;52.480;13.422;2023-07-22T12:36:14;4.60;;;3.20;;
3491;SDS011;1760;52.480;13.422;2023-07-22T12:38:43;5.20;;;3.20;;
3491;SDS011;1760;52.480;13.422;2023-07-22T12:41:11;3.60;;;3.00;;
3491;SDS011;1760;52.480;13.422;2023-07-22T12:43:40;10.77;;;3.20;;
3491;SDS011;1760;52.480;13.422;2023-07-22T12:46:07;3.70;;;3.30;;
3491;SDS011;1760;52.480;13.422;2023-07-22T12:48:34;6.07;;;3.73;;
3491;SDS011;1760;52.480;13.422;2023-07-22T12:51:04;5.10;;;3.30;;
3491;SDS011;1760;52.480;13.422;2023-07-22T12:53:31;4.00;;;3.67;;
3491;SDS011;1760;52.480;13.422;2023-07-22T12:55:58;4.47;;;3.77;;
3491;SDS011;1760;52.480;13.422;2023-07-22T12:58:29;3.70;;;3.20;;
3491;SDS011;1760;52.480;13.422;2023-07-22T13:00:56;4.63;;;2.87;;
3491;SDS011;1760;52.480;13.422;2023-07-22T13:03:22;4.67;;;3.43;;
3491;SDS011;1760;52.480;13.422;2023-07-22T13:05:49;10.00;;;3.87;;
3491;SDS011;1760;52.480;13.422;2023-07-22T13:08:16;4.43;;;3.70;;
3491;SDS011;1760;52.480;13.422;2023-07-22T13:10:43;3.70;;;3.10;;
3491;SDS011;1760;52.480;13.422;2023-07-22T13:13:12;4.97;;;3.30;;
3491;SDS011;1760;52.480;13.422;2023-07-22T13:15:40;3.93;;;2.77;;
3491;SDS011;1760;52.480;13.422;2023-07-22T13:18:07;4.50;;;3.70;;
3491;SDS011;1760;52.480;13.422;2023-07-22T13:20:34;4.83;;;4.07;;
3491;SDS011;1760;52.480;13.422;2023-07-22T13:23:01;4.30;;;3.00;;
3491;SDS011;1760;52.480;13.422;2023-07-22T13:25:28;9.83;;;3.90;;
3491;SDS011;1760;52.480;13.422;2023-07-22T13:27:55;4.87;;;3.53;;
3491;SDS011;1760;52.480;13.422;2023-07-22T13:30:24;4.70;;;3.70;;
3491;SDS011;1760;52.480;13.422;2023-07-22T13:32:52;4.30;;;3.20;;
3491;SDS011;1760;52.480;13.422;2023-07-22T13:35:21;3.77;;;3.27;;
3491;SDS011;1760;52.480;13.422;2023-07-22T13:37:48;4.80;;;3.70;;
3491;SDS011;1760;52.480;13.422;2023-07-22T13:40:15;3.13;;;2.83;;
3491;SDS011;1760;52.480;13.422;2023-07-22T13:42:42;4.10;;;3.53;;
3491;SDS011;1760;52.480;13.422;2023-07-22T13:45:09;3.83;;;3.50;;
3491;SDS011;1760;52.480;13.422;2023-07-22T13:47:36;3.10;;;2.80;;
3491;SDS011;1760;52.480;13.422;2023-07-22T13:50:05;4.10;;;3.00;;
3491;SDS011;1760;52.480;13.422;2023-07-22T13:52:32;4.90;;;3.80;;
3491;SDS011;1760;52.480;13.422;2023-07-22T13:55:00;3.30;;;2.70;;
3491;SDS011;1760;52.480;13.422;2023-07-22T13:57:27;4.33;;;3.33;;
3491;SDS011;1760;52.480;13.422;2023-07-22T13:59:54;5.00;;;4.50;;
3491;SDS011;1760;52.480;13.422;2023-07-22T14:02:21;4.20;;;3.60;;
3491;SDS011;1760;52.480;13.422;2023-07-22T14:04:48;5.03;;;3.17;;
3491;SDS011;1760;52.480;13.422;2023-07-22T14:07:16;4.13;;;3.60;;
3491;SDS011;1760;52.480;13.422;2023-07-22T14:09:43;4.40;;;3.20;;
3491;SDS011;1760;52.480;13.422;2023-07-22T14:12:10;6.03;;;4.13;;
3491;SDS011;1760;52.480;13.422;2023-07-22T14:14:40;4.70;;;3.93;;
3491;SDS011;1760;52.480;13.422;2023-07-22T14:17:07;3.97;;;3.20;;
3491;SDS011;1760;52.480;13.422;2023-07-22T14:19:34;4.27;;;3.33;;
3491;SDS011;1760;52.480;13.422;2023-07-22T14:22:00;3.87;;;3.10;;
3491;SDS011;1760;52.480;13.422;2023-07-22T14:24:30;3.20;;;2.90;;
3491;SDS011;1760;52.480;13.422;2023-07-22T14:26:57;4.10;;;3.20;;
3491;SDS011;1760;52.480;13.422;2023-07-22T14:29:24;5.13;;;3.27;;
3491;SDS011;1760;52.480;13.422;2023-07-22T14:31:51;3.70;;;3.10;;
3491;SDS011;1760;52.480;13.422;2023-07-22T14:34:18;4.07;;;3.27;;
3491;SDS011;1760;52.480;13.422;2023-07-22T14:36:45;5.87;;;3.80;;
3491;SDS011;1760;52.480;13.422;2023-07-22T14:39:11;4.00;;;3.17;;
3491;SDS011;1760;52.480;13.422;2023-07-22T14:41:40;11.33;;;4.03;;
3491;SDS011;1760;52.480;13.422;2023-07-22T14:44:08;4.73;;;3.50;;
3491;SDS011;1760;52.480;13.422;2023-07-22T14:46:35;5.00;;;3.37;;
3491;SDS011;1760;52.480;13.422;2023-07-22T14:49:02;5.20;;;3.10;;
3491;SDS011;1760;52.480;13.422;2023-07-22T14:51:29;4.80;;;3.20;;
3491;SDS011;1760;52.480;13.422;2023-07-22T14:53:57;5.00;;;3.47;;
3491;SDS011;1760;52.480;13.422;2023-07-22T14:56:25;5.23;;;3.30;;
3491;SDS011;1760;52.480;13.422;2023-07-22T14:58:54;5.30;;;3.50;;
3491;SDS011;1760;52.480;13.422;2023-07-22T15:01:21;7.50;;;3.60;;
3491;SDS011;1760;52.480;13.422;2023-07-22T15:03:48;5.60;;;3.23;;
3491;SDS011;1760;52.480;13.422;2023-07-22T15:06:15;4.00;;;3.60;;
3491;SDS011;1760;52.480;13.422;2023-07-22T15:08:43;5.30;;;4.07;;